Time;durP1;ratioP1;P1;durP2;ratioP2;P2;SDS_P1;SDS_P2;PMS_P1;PMS_P2;Temp;Humidity;BMP_temperature;BMP_pressure;BME280_temperature;BME280_humidity;BME280_pressure;Samples;Min_cycle;Max_cycle;Signal;HPM_P1;HPM_P2
2021/05/02 00:01:04;;;;;;;1.97;1.00;;;9.50;99.90;;;;;;5047246;28;20206;-74
2021/05/02 00:03:31;;;;;;;1.20;1.10;;;9.50;99.90;;;;;;5064460;28;20202;-74
2021/05/02 00:05:59;;;;;;;1.37;0.63;;;9.50;99.90;;;;;;5047956;28;20690;-74
2021/05/02 00:08:27;;;;;;;1.00;1.00;;;9.50;99.90;;;;;;5048186;28;20201;-73
2021/05/02 00:10:54;;;;;;;0.90;0.90;;;9.60;99.90;;;;;;5060597;28;20205;-74
2021/05/02 00:13:21;;;;;;;0.97;0.87;;;9.60;99.90;;;;;;5061795;28;20190;-74
2021/05/02 00:15:48;;;;;;;2.73;1.00;;;9.60;99.90;;;;;;5058822;28;20221;-74
2021/05/02 00:18:17;;;;;;;1.97;1.10;;;9.60;99.90;;;;;;5047031;28;20205;-74
2021/05/02 00:20:44;;;;;;;1.10;1.00;;;9.60;99.90;;;;;;5061267;28;20202;-74
2021/05/02 00:23:11;;;;;;;2.40;1.10;;;9.60;99.90;;;;;;5048783;28;20273;-74
2021/05/02 00:25:38;;;;;;;1.27;1.17;;;9.50;99.90;;;;;;5048772;28;20186;-74
2021/05/02 00:28:07;;;;;;;1.30;1.10;;;9.50;99.90;;;;;;5047903;28;20205;-74
2021/05/02 00:30:37;;;;;;;1.80;1.03;;;9.50;99.90;;;;;;5040040;28;20681;-74
2021/05/02 00:33:04;;;;;;;1.70;1.03;;;9.50;99.90;;;;;;5048982;28;20279;-74
2021/05/02 00:35:32;;;;;;;1.00;1.00;;;9.50;99.90;;;;;;5062124;28;20205;-74
2021/05/02 00:37:59;;;;;;;1.77;1.27;;;9.50;99.90;;;;;;5044421;28;20206;-74
2021/05/02 00:40:31;;;;;;;1.43;1.33;;;9.50;99.90;;;;;;5063710;28;20200;-74
2021/05/02 00:43:02;;;;;;;1.60;1.30;;;9.50;99.90;;;;;;5033614;28;20205;-74
2021/05/02 00:45:38;;;;;;;1.20;1.10;;;9.50;99.90;;;;;;5034541;28;20233;-74
2021/05/02 00:48:09;;;;;;;1.60;1.20;;;9.50;99.90;;;;;;5034559;28;20727;-72
2021/05/02 00:50:48;;;;;;;0.90;0.90;;;9.50;99.90;;;;;;5035082;28;20538;-74
2021/05/02 00:53:23;;;;;;;0.90;0.90;;;9.50;99.90;;;;;;5028955;28;20615;-74
2021/05/02 00:55:54;;;;;;;0.97;0.87;;;9.50;99.90;;;;;;5045662;28;20208;-74
2021/05/02 00:58:32;;;;;;;1.10;1.10;;;9.50;99.90;;;;;;5053418;28;20280;-74
2021/05/02 01:01:01;;;;;;;1.43;1.33;;;9.50;99.90;;;;;;5046536;28;20216;-74
2021/05/02 01:03:33;;;;;;;1.20;1.20;;;9.50;99.90;;;;;;5047143;28;20225;-74
2021/05/02 01:06:08;;;;;;;1.00;1.00;;;9.50;99.90;;;;;;5044306;28;20655;-74
2021/05/02 01:08:40;;;;;;;1.13;1.00;;;9.50;99.90;;;;;;5046106;28;20205;-73
2021/05/02 01:11:12;;;;;;;2.40;1.50;;;9.50;99.90;;;;;;5045621;28;20198;-73
2021/05/02 01:13:45;;;;;;;2.30;1.30;;;9.50;99.90;;;;;;5045571;28;20671;-73
2021/05/02 01:16:14;;;;;;;1.80;1.17;;;9.50;99.90;;;;;;5047063;28;20227;-73
2021/05/02 01:18:42;;;;;;;1.17;1.13;;;9.50;99.90;;;;;;5035983;28;20208;-73
2021/05/02 01:21:14;;;;;;;1.00;1.00;;;9.50;99.90;;;;;;5048083;28;20712;-73
2021/05/02 01:23:43;;;;;;;1.83;1.23;;;9.50;99.90;;;;;;5036284;28;20613;-73
2021/05/02 01:26:12;;;;;;;1.20;1.10;;;9.50;99.90;;;;;;5046378;28;20217;-73
2021/05/02 01:28:42;;;;;;;1.40;1.30;;;9.50;99.90;;;;;;5065702;28;20208;-74
2021/05/02 01:31:10;;;;;;;1.30;1.20;;;9.50;99.90;;;;;;5041045;28;20697;-73
2021/05/02 01:33:37;;;;;;;1.40;1.30;;;9.40;99.90;;;;;;5048357;28;20707;-73
2021/05/02 01:36:04;;;;;;;2.67;1.47;;;9.40;99.90;;;;;;5037044;28;20218;-74
2021/05/02 01:38:33;;;;;;;1.27;1.17;;;9.40;99.90;;;;;;5046925;28;20205;-73
2021/05/02 01:41:01;;;;;;;1.53;1.40;;;9.40;99.90;;;;;;5063330;28;20213;-73
2021/05/02 01:43:27;;;;;;;2.27;1.80;;;9.40;99.90;;;;;;5062932;28;20214;-74
2021/05/02 01:45:57;;;;;;;2.40;1.50;;;9.40;99.90;;;;;;5047401;28;20194;-74
2021/05/02 01:48:26;;;;;;;1.70;1.60;;;9.40;99.90;;;;;;5061076;28;20283;-72
2021/05/02 01:50:59;;;;;;;2.00;1.50;;;9.30;99.90;;;;;;5047808;28;20588;-74
2021/05/02 01:53:27;;;;;;;1.33;1.23;;;9.40;99.90;;;;;;5051812;28;20198;-74
2021/05/02 01:55:54;;;;;;;2.17;1.70;;;9.30;99.90;;;;;;5066749;28;20827;-74
2021/05/02 01:58:24;;;;;;;3.30;1.80;;;9.30;99.90;;;;;;5050423;28;20205;-74
2021/05/02 02:00:54;;;;;;;1.67;1.30;;;9.60;99.90;;;;;;5050697;28;20645;-73
2021/05/02 02:03:21;;;;;;;1.87;1.77;;;9.30;99.90;;;;;;5067072;28;20208;-74
2021/05/02 02:05:50;;;;;;;1.50;1.20;;;9.30;99.90;;;;;;5067173;28;20237;-74
2021/05/02 02:08:18;;;;;;;1.70;1.60;;;9.20;99.90;;;;;;5051778;28;20197;-74
2021/05/02 02:10:46;;;;;;;1.83;1.50;;;9.20;99.90;;;;;;5051175;28;20566;-74
2021/05/02 02:13:15;;;;;;;2.23;1.20;;;9.20;99.90;;;;;;5066963;28;20996;-74
2021/05/02 02:15:44;;;;;;;1.70;1.40;;;9.20;99.90;;;;;;5043039;28;20210;-74
2021/05/02 02:18:12;;;;;;;1.60;1.50;;;9.20;99.90;;;;;;5067199;28;20212;-74
2021/05/02 02:20:41;;;;;;;2.17;1.83;;;9.20;99.90;;;;;;5049241;28;20337;-74
2021/05/02 02:23:15;;;;;;;1.90;1.17;;;9.20;99.90;;;;;;5049945;28;20233;-73
2021/05/02 02:25:44;;;;;;;4.30;1.40;;;9.10;99.90;;;;;;5049209;28;20774;-73
2021/05/02 02:28:14;;;;;;;2.77;1.50;;;9.20;99.90;;;;;;5049963;28;20205;-74
2021/05/02 02:30:44;;;;;;;3.50;2.17;;;9.20;99.90;;;;;;5038967;28;20284;-73
2021/05/02 02:33:11;;;;;;;1.53;1.40;;;9.10;99.90;;;;;;5049488;28;20205;-73
2021/05/02 02:35:41;;;;;;;2.40;1.47;;;9.10;99.90;;;;;;5058505;28;20300;-73
2021/05/02 02:38:09;;;;;;;2.70;1.73;;;9.10;99.90;;;;;;5047446;28;20221;-73
2021/05/02 02:40:38;;;;;;;2.63;1.40;;;9.10;99.90;;;;;;5045009;28;20230;-73
2021/05/02 02:43:05;;;;;;;2.43;1.70;;;9.10;99.90;;;;;;5049269;28;20209;-73
2021/05/02 02:45:35;;;;;;;2.80;1.70;;;9.10;99.90;;;;;;5048947;28;20230;-73
2021/05/02 02:48:05;;;;;;;1.70;1.60;;;9.00;99.90;;;;;;5066249;28;20249;-74
2021/05/02 02:50:32;;;;;;;2.03;1.83;;;9.00;99.90;;;;;;5049560;28;20202;-73
2021/05/02 02:53:04;;;;;;;3.80;2.00;;;9.00;99.90;;;;;;5049111;28;20189;-73
2021/05/02 02:55:32;;;;;;;2.57;1.80;;;9.00;99.90;;;;;;5049217;28;20213;-73
2021/05/02 02:58:00;;;;;;;2.53;1.93;;;9.00;99.90;;;;;;5049577;28;20221;-73
2021/05/02 03:00:30;;;;;;;2.40;2.20;;;9.00;99.90;;;;;;5047291;28;20205;-73
2021/05/02 03:03:03;;;;;;;4.80;2.53;;;9.00;99.90;;;;;;5046896;28;20242;-73
2021/05/02 03:05:33;;;;;;;2.57;2.30;;;9.00;99.90;;;;;;5060154;28;20218;-74
2021/05/02 03:08:01;;;;;;;4.63;2.40;;;8.90;99.90;;;;;;5048778;28;20208;-73
2021/05/02 03:10:29;;;;;;;2.90;2.40;;;8.90;99.90;;;;;;5046797;28;20202;-74
2021/05/02 03:12:57;;;;;;;3.57;2.07;;;8.90;99.90;;;;;;5045803;28;20602;-74
2021/05/02 03:15:24;;;;;;;3.40;2.43;;;9.00;99.90;;;;;;5047367;28;20212;-73
2021/05/02 03:18:03;;;;;;;2.83;2.57;;;9.00;99.90;;;;;;5049967;28;20695;-73
2021/05/02 03:20:34;;;;;;;3.13;2.30;;;9.00;99.90;;;;;;5064751;28;20314;-73
2021/05/02 03:23:07;;;;;;;2.33;1.87;;;9.00;99.90;;;;;;5045700;28;20201;-74
2021/05/02 03:25:36;;;;;;;3.63;2.40;;;9.00;99.90;;;;;;5041731;28;20194;-74
2021/05/02 03:28:06;;;;;;;4.17;2.40;;;9.00;99.90;;;;;;5050147;28;20224;-74
2021/05/02 03:30:34;;;;;;;4.83;2.77;;;9.10;99.90;;;;;;5037673;28;20208;-74
2021/05/02 03:33:03;;;;;;;3.93;2.47;;;9.10;99.90;;;;;;5043581;28;20196;-74
2021/05/02 03:35:34;;;;;;;6.93;3.00;;;9.10;99.90;;;;;;5041280;28;20202;-74
2021/05/02 03:38:16;;;;;;;4.83;2.90;;;9.00;99.90;;;;;;5058594;28;20661;-74
2021/05/02 03:40:43;;;;;;;4.17;3.07;;;9.10;99.90;;;;;;5064952;28;20240;-74
2021/05/02 03:43:10;;;;;;;3.83;2.87;;;9.10;99.90;;;;;;5047365;28;20208;-74
2021/05/02 03:45:37;;;;;;;7.93;3.47;;;9.10;99.90;;;;;;5046604;28;20198;-74
2021/05/02 03:48:05;;;;;;;3.90;2.77;;;9.10;99.90;;;;;;5042744;28;20222;-74
2021/05/02 03:50:32;;;;;;;6.47;3.60;;;9.10;99.90;;;;;;5046142;28;20581;-74
2021/05/02 03:52:59;;;;;;;7.37;3.30;;;9.10;99.90;;;;;;5060032;28;20203;-74
2021/05/02 03:55:26;;;;;;;5.70;3.33;;;9.10;99.90;;;;;;5046981;28;20221;-74
2021/05/02 03:57:53;;;;;;;3.63;2.83;;;9.10;99.90;;;;;;5059150;28;20284;-74
2021/05/02 04:00:20;;;;;;;4.13;3.30;;;9.10;99.90;;;;;;5044076;28;20259;-74
2021/05/02 04:02:47;;;;;;;5.53;3.47;;;9.10;99.90;;;;;;5059141;28;20201;-74
2021/05/02 04:05:14;;;;;;;9.00;3.53;;;9.10;99.90;;;;;;5039955;28;20251;-74
2021/05/02 04:07:41;;;;;;;6.27;3.73;;;9.10;99.90;;;;;;5048143;28;20535;-74
2021/05/02 04:10:08;;;;;;;7.93;4.20;;;9.20;99.90;;;;;;5047064;28;20202;-74
2021/05/02 04:12:35;;;;;;;11.33;3.77;;;9.20;99.90;;;;;;5049076;28;20664;-74
2021/05/02 04:15:02;;;;;;;4.87;3.30;;;9.20;99.90;;;;;;5048263;28;20669;-74
2021/05/02 04:17:29;;;;;;;6.20;3.80;;;9.20;99.90;;;;;;5048617;28;20217;-73
2021/05/02 04:19:55;;;;;;;5.43;3.10;;;9.20;99.90;;;;;;5047624;28;20212;-74
2021/05/02 04:22:22;;;;;;;7.10;3.67;;;9.30;99.90;;;;;;5041883;28;20190;-73
2021/05/02 04:24:50;;;;;;;6.20;3.73;;;9.30;99.90;;;;;;5047932;28;20274;-74
2021/05/02 04:27:17;;;;;;;4.30;3.37;;;9.30;99.90;;;;;;5063579;28;20206;-74
2021/05/02 04:29:43;;;;;;;6.13;3.70;;;9.30;99.90;;;;;;5060931;28;20206;-74
2021/05/02 04:32:10;;;;;;;6.20;4.13;;;9.30;99.90;;;;;;5062509;28;20683;-73
2021/05/02 04:34:37;;;;;;;9.30;3.80;;;9.30;99.90;;;;;;5046827;28;20194;-73
2021/05/02 04:37:03;;;;;;;6.47;3.40;;;9.30;99.90;;;;;;5049872;28;20224;-73
2021/05/02 04:39:30;;;;;;;6.70;4.80;;;9.30;99.90;;;;;;5048542;28;20236;-72
2021/05/02 04:41:58;;;;;;;8.57;4.23;;;9.40;99.90;;;;;;5064053;28;20212;-73
2021/05/02 04:44:29;;;;;;;7.80;4.27;;;9.40;99.90;;;;;;5046007;28;20268;-74
2021/05/02 04:46:58;;;;;;;6.57;3.97;;;9.40;99.90;;;;;;5047736;28;20623;-73
2021/05/02 04:49:26;;;;;;;7.10;4.33;;;9.40;99.90;;;;;;5047106;28;20323;-73
2021/05/02 04:51:53;;;;;;;6.80;3.57;;;9.40;99.90;;;;;;5046560;28;20204;-73
2021/05/02 04:54:20;;;;;;;5.03;3.27;;;9.40;99.90;;;;;;5063469;28;20678;-73
2021/05/02 04:56:48;;;;;;;4.93;3.43;;;9.40;99.90;;;;;;5046517;28;20218;-73
2021/05/02 04:59:16;;;;;;;6.07;3.50;;;9.40;99.90;;;;;;5046819;28;20198;-74
2021/05/02 05:01:44;;;;;;;5.07;3.30;;;9.40;99.90;;;;;;5045388;28;20201;-73
2021/05/02 05:04:11;;;;;;;7.80;3.33;;;9.50;99.90;;;;;;5048485;28;20201;-74
2021/05/02 05:06:37;;;;;;;5.13;3.60;;;9.50;99.90;;;;;;5044144;28;20209;-74
2021/05/02 05:09:05;;;;;;;5.60;3.40;;;9.50;99.90;;;;;;5046036;28;20532;-74
2021/05/02 05:11:32;;;;;;;4.83;3.43;;;9.50;99.90;;;;;;5044386;28;20244;-74
2021/05/02 05:13:59;;;;;;;6.20;3.33;;;9.50;99.90;;;;;;5045289;28;20206;-73
2021/05/02 05:16:28;;;;;;;4.00;3.23;;;9.60;99.90;;;;;;5047405;28;20237;-74
2021/05/02 05:18:55;;;;;;;5.87;3.30;;;9.60;99.90;;;;;;5047856;28;20198;-74
2021/05/02 05:21:21;;;;;;;5.33;3.50;;;9.60;99.80;;;;;;5047697;28;20552;-74
2021/05/02 05:23:48;;;;;;;4.73;3.47;;;9.70;99.70;;;;;;5034610;28;20201;-73
2021/05/02 05:26:15;;;;;;;5.63;3.27;;;9.70;99.50;;;;;;5046114;28;20199;-74
2021/05/02 05:28:41;;;;;;;6.07;4.13;;;9.70;99.20;;;;;;5043978;28;20194;-73
2021/05/02 05:31:08;;;;;;;5.83;3.77;;;9.80;99.10;;;;;;5045068;28;20205;-73
2021/05/02 05:33:36;;;;;;;5.97;3.60;;;9.80;99.10;;;;;;5046322;28;20194;-73
2021/05/02 05:36:03;;;;;;;6.33;3.73;;;9.80;98.90;;;;;;5044709;28;20198;-73
2021/05/02 05:38:30;;;;;;;6.20;3.67;;;9.80;98.80;;;;;;5042851;28;20189;-73
2021/05/02 05:40:59;;;;;;;6.00;3.60;;;9.80;98.80;;;;;;5042066;28;20203;-73
2021/05/02 05:43:26;;;;;;;5.13;2.90;;;9.80;98.60;;;;;;5036197;28;20213;-73
2021/05/02 05:45:54;;;;;;;4.63;2.90;;;9.80;98.60;;;;;;5040111;28;20244;-73
2021/05/02 05:48:21;;;;;;;5.87;3.53;;;9.80;98.60;;;;;;5034625;28;20250;-73
2021/05/02 05:50:48;;;;;;;6.67;3.63;;;9.80;98.40;;;;;;5063334;28;20202;-73
2021/05/02 05:53:16;;;;;;;5.20;3.30;;;9.90;98.40;;;;;;5047904;28;20689;-73
2021/05/02 05:55:43;;;;;;;5.50;3.33;;;9.80;98.20;;;;;;5047314;28;20688;-74
2021/05/02 05:58:09;;;;;;;4.80;3.17;;;9.90;98.10;;;;;;5047881;28;20217;-74
2021/05/02 06:00:36;;;;;;;4.57;3.07;;;9.90;98.00;;;;;;5046432;28;20205;-73
2021/05/02 06:03:03;;;;;;;4.80;2.97;;;9.90;97.90;;;;;;5045179;28;20196;-74
2021/05/02 06:05:30;;;;;;;3.73;3.03;;;9.90;97.80;;;;;;5047963;28;20203;-74
2021/05/02 06:07:57;;;;;;;5.73;3.20;;;10.00;97.10;;;;;;5041657;28;20193;-74
2021/05/02 06:10:24;;;;;;;4.20;3.00;;;10.00;96.80;;;;;;5062781;28;20206;-73
2021/05/02 06:12:51;;;;;;;5.23;3.27;;;10.00;96.70;;;;;;5045344;28;20202;-73
2021/05/02 06:15:18;;;;;;;5.40;3.20;;;10.10;96.70;;;;;;5045249;28;20197;-73
2021/05/02 06:17:44;;;;;;;5.43;2.97;;;10.10;96.50;;;;;;5045681;28;20223;-73
2021/05/02 06:20:11;;;;;;;3.90;2.70;;;10.10;96.50;;;;;;5047476;28;20677;-73
2021/05/02 06:22:38;;;;;;;4.63;3.20;;;10.10;96.50;;;;;;5047419;28;20195;-72
2021/05/02 06:25:08;;;;;;;5.93;3.30;;;10.20;96.40;;;;;;5046191;28;20605;-73
2021/05/02 06:27:35;;;;;;;5.07;3.17;;;10.10;96.30;;;;;;5045775;28;20202;-73
2021/05/02 06:30:03;;;;;;;4.60;2.77;;;10.20;96.40;;;;;;5054552;28;20229;-73
2021/05/02 06:32:30;;;;;;;4.80;3.00;;;10.20;96.50;;;;;;5061522;28;20618;-73
2021/05/02 06:34:57;;;;;;;6.57;3.10;;;10.20;96.50;;;;;;5058937;28;20204;-73
2021/05/02 06:37:24;;;;;;;3.50;2.90;;;10.20;96.60;;;;;;5049174;28;20219;-72
2021/05/02 06:39:51;;;;;;;5.87;3.43;;;10.30;96.70;;;;;;5050696;28;20207;-72
2021/05/02 06:42:18;;;;;;;4.77;3.20;;;10.30;96.70;;;;;;5049668;28;20203;-72
2021/05/02 06:44:45;;;;;;;5.60;3.10;;;10.30;96.80;;;;;;5062822;28;20255;-72
2021/05/02 06:47:12;;;;;;;4.43;3.03;;;10.20;96.90;;;;;;5049083;28;20411;-72
2021/05/02 06:49:38;;;;;;;4.60;2.80;;;10.20;97.10;;;;;;5048292;28;20250;-73
2021/05/02 06:52:05;;;;;;;4.70;2.43;;;10.20;97.20;;;;;;5047827;28;20294;-74
2021/05/02 06:54:32;;;;;;;3.27;2.47;;;10.20;97.20;;;;;;5048071;28;20214;-73
2021/05/02 06:56:59;;;;;;;5.83;2.90;;;10.20;97.10;;;;;;5052391;28;20217;-74
2021/05/02 06:59:26;;;;;;;3.87;2.93;;;10.20;97.20;;;;;;5054753;28;20250;-74
2021/05/02 07:01:53;;;;;;;5.53;2.80;;;10.20;97.20;;;;;;5050985;28;20575;-73
2021/05/02 07:04:20;;;;;;;2.73;2.13;;;10.20;97.00;;;;;;5048676;28;20261;-74
2021/05/02 07:06:46;;;;;;;7.73;3.37;;;10.20;97.10;;;;;;5065066;28;20188;-73
2021/05/02 07:09:13;;;;;;;3.13;2.53;;;10.10;97.10;;;;;;5065706;28;20403;-73
2021/05/02 07:11:40;;;;;;;5.03;3.10;;;10.10;97.20;;;;;;5047375;28;20190;-73
2021/05/02 07:14:06;;;;;;;3.37;2.60;;;10.20;97.20;;;;;;5063811;28;20205;-73
2021/05/02 07:16:34;;;;;;;4.90;2.70;;;10.10;97.20;;;;;;5062488;28;20223;-73
2021/05/02 07:19:02;;;;;;;3.00;2.67;;;10.10;97.30;;;;;;5065299;28;20215;-73
2021/05/02 07:21:28;;;;;;;4.33;2.40;;;10.10;97.40;;;;;;5047546;28;20297;-73
2021/05/02 07:23:55;;;;;;;16.93;3.47;;;10.10;97.50;;;;;;5064094;28;20216;-73
2021/05/02 07:26:23;;;;;;;4.70;2.70;;;10.10;97.80;;;;;;5047114;28;20202;-74
2021/05/02 07:28:50;;;;;;;4.77;2.67;;;10.10;98.20;;;;;;5063354;28;20202;-74
2021/05/02 07:31:17;;;;;;;4.40;2.50;;;10.10;98.40;;;;;;5033377;28;20461;-74
2021/05/02 07:33:45;;;;;;;3.37;2.37;;;10.10;98.40;;;;;;5047411;28;20205;-73
2021/05/02 07:36:13;;;;;;;3.07;2.20;;;10.10;98.50;;;;;;5061345;28;20528;-73
2021/05/02 07:38:42;;;;;;;3.10;2.23;;;10.10;98.50;;;;;;5038330;28;20222;-73
2021/05/02 07:41:09;;;;;;;3.13;2.10;;;10.20;98.40;;;;;;5041010;28;20263;-74
2021/05/02 07:43:36;;;;;;;6.17;2.67;;;10.30;98.20;;;;;;5031313;28;20221;-75
2021/05/02 07:46:03;;;;;;;2.57;2.20;;;10.40;97.90;;;;;;5038351;28;20196;-74
2021/05/02 07:48:30;;;;;;;2.30;2.07;;;10.40;97.50;;;;;;5044290;28;20636;-73
2021/05/02 07:50:58;;;;;;;3.87;2.67;;;10.40;97.20;;;;;;5043619;28;20191;-74
2021/05/02 07:53:25;;;;;;;2.67;2.27;;;10.40;97.20;;;;;;5047607;28;20217;-73
2021/05/02 07:55:52;;;;;;;4.80;2.23;;;10.40;97.20;;;;;;5048240;28;20248;-74
2021/05/02 07:58:19;;;;;;;3.70;2.10;;;10.40;97.20;;;;;;5046543;28;20234;-74
2021/05/02 08:00:45;;;;;;;5.87;2.67;;;10.40;97.20;;;;;;5059249;28;20533;-75
2021/05/02 08:03:12;;;;;;;3.83;2.90;;;10.30;97.30;;;;;;5049143;28;20718;-74
2021/05/02 08:05:39;;;;;;;5.40;2.80;;;10.30;97.70;;;;;;5049380;28;20202;-73
2021/05/02 08:08:07;;;;;;;3.63;2.47;;;10.20;97.70;;;;;;5047098;28;20232;-73
2021/05/02 08:10:33;;;;;;;5.13;2.80;;;10.20;97.70;;;;;;5046962;28;20206;-74
2021/05/02 08:13:00;;;;;;;4.20;2.83;;;10.10;97.70;;;;;;5047579;28;20777;-74
2021/05/02 08:15:27;;;;;;;6.10;3.70;;;10.10;97.90;;;;;;5048162;28;20225;-74
2021/05/02 08:17:56;;;;;;;10.23;2.63;;;10.10;98.20;;;;;;5047183;28;20222;-74
2021/05/02 08:20:23;;;;;;;4.23;3.03;;;10.10;98.40;;;;;;5059886;28;20222;-71
2021/05/02 08:22:50;;;;;;;6.00;3.87;;;9.60;98.90;;;;;;5045477;28;20449;-72
2021/05/02 08:25:17;;;;;;;7.03;3.20;;;10.10;98.80;;;;;;5037882;28;20206;-72
2021/05/02 08:27:46;;;;;;;6.10;3.37;;;10.10;99.10;;;;;;5055497;28;20224;-72
2021/05/02 08:30:14;;;;;;;6.43;2.90;;;10.10;99.40;;;;;;5034482;28;20198;-75
2021/05/02 08:32:41;;;;;;;8.97;3.40;;;10.10;99.50;;;;;;5034482;28;20237;-71
2021/05/02 08:35:09;;;;;;;9.03;3.50;;;10.10;99.50;;;;;;5036792;28;20781;-69
2021/05/02 08:37:36;;;;;;;3.60;2.80;;;10.10;99.40;;;;;;5035596;28;20217;-72
2021/05/02 08:40:05;;;;;;;3.83;2.63;;;10.10;99.30;;;;;;5059469;28;20217;-74
2021/05/02 08:42:32;;;;;;;5.13;3.10;;;10.10;99.20;;;;;;5050077;28;20532;-73
2021/05/02 08:45:00;;;;;;;4.80;2.50;;;10.10;99.00;;;;;;5040565;28;20250;-71
2021/05/02 08:47:27;;;;;;;4.77;2.60;;;10.20;98.80;;;;;;5045100;28;20526;-73
2021/05/02 08:49:54;;;;;;;5.17;2.67;;;10.20;98.60;;;;;;5042993;28;20210;-73
2021/05/02 08:52:20;;;;;;;3.50;2.70;;;10.20;98.10;;;;;;5035459;28;20207;-74
2021/05/02 08:54:47;;;;;;;5.67;2.67;;;10.20;97.80;;;;;;5041707;28;20670;-72
2021/05/02 08:57:14;;;;;;;4.93;2.63;;;10.20;97.50;;;;;;5037255;28;20631;-76
2021/05/02 08:59:42;;;;;;;3.80;2.40;;;10.20;97.60;;;;;;5039977;28;21144;-73
2021/05/02 09:02:21;;;;;;;3.23;2.40;;;10.20;97.30;;;;;;5031209;28;20729;-75
2021/05/02 09:04:52;;;;;;;4.97;2.80;;;10.20;97.40;;;;;;5045036;28;20589;-72
2021/05/02 09:07:19;;;;;;;3.97;2.47;;;10.20;97.40;;;;;;5045153;28;20198;-71
2021/05/02 09:09:46;;;;;;;3.83;2.37;;;10.30;97.60;;;;;;5043411;28;20700;-74
2021/05/02 09:12:21;;;;;;;1.73;1.63;;;10.30;97.50;;;;;;5046561;28;20295;-75
2021/05/02 09:14:49;;;;;;;2.23;1.90;;;10.30;97.30;;;;;;5042134;28;20196;-73
2021/05/02 09:17:20;;;;;;;2.20;2.00;;;10.30;97.30;;;;;;5042109;28;20219;-74
2021/05/02 09:19:48;;;;;;;3.70;2.50;;;10.30;97.00;;;;;;5045438;28;20220;-77
2021/05/02 09:22:16;;;;;;;2.90;2.27;;;10.30;97.10;;;;;;5044315;28;20672;-72
2021/05/02 09:24:43;;;;;;;3.50;1.93;;;10.30;96.80;;;;;;5045303;28;20328;-75
2021/05/02 09:27:11;;;;;;;4.07;2.03;;;10.30;96.20;;;;;;5040324;28;20677;-75
2021/05/02 09:29:39;;;;;;;3.90;2.10;;;10.30;96.00;;;;;;5044115;28;20220;-76
2021/05/02 09:32:09;;;;;;;8.47;2.27;;;10.30;96.00;;;;;;5042764;28;20198;-76
2021/05/02 09:34:36;;;;;;;4.53;2.03;;;10.30;96.20;;;;;;5041724;28;20288;-75
2021/05/02 09:37:05;;;;;;;2.17;1.80;;;10.20;96.30;;;;;;5042410;28;20229;-74
2021/05/02 09:39:37;;;;;;;3.23;2.10;;;10.30;96.50;;;;;;5049084;28;20610;-72
2021/05/02 09:42:06;;;;;;;4.33;1.90;;;10.30;96.60;;;;;;5042668;28;20206;-72
2021/05/02 09:44:41;;;;;;;1.83;1.60;;;10.30;96.70;;;;;;5040933;28;20213;-71
2021/05/02 09:47:23;;;;;;;3.80;1.80;;;10.30;96.80;;;;;;5027825;28;20219;-73
2021/05/02 09:50:10;;;;;;;2.57;1.90;;;10.40;97.10;;;;;;5033122;28;20198;-72
2021/05/02 09:52:51;;;;;;;3.60;1.90;;;10.30;97.50;;;;;;5036672;28;20206;-73
2021/05/02 09:55:29;;;;;;;3.13;1.50;;;10.30;97.80;;;;;;5034243;28;20198;-71
2021/05/02 09:58:04;;;;;;;3.03;2.00;;;10.30;98.10;;;;;;5042682;28;20223;-70
2021/05/02 10:00:34;;;;;;;2.57;1.40;;;10.20;98.30;;;;;;5034732;28;20217;-71
2021/05/02 10:03:06;;;;;;;2.47;1.40;;;10.20;98.60;;;;;;5051805;28;20213;-70
2021/05/02 10:05:34;;;;;;;1.77;1.57;;;10.20;98.90;;;;;;5054709;28;20679;-71
2021/05/02 10:08:01;;;;;;;2.97;1.10;;;10.20;98.90;;;;;;5037706;28;20260;-71
2021/05/02 10:10:29;;;;;;;3.07;1.53;;;10.10;99.20;;;;;;5040551;28;20233;-71
2021/05/02 10:12:56;;;;;;;2.03;1.37;;;10.10;99.60;;;;;;5046082;28;20284;-71
2021/05/02 10:15:24;;;;;;;2.37;1.40;;;10.10;99.90;;;;;;5045931;28;20205;-70
2021/05/02 10:17:52;;;;;;;4.30;1.50;;;10.00;99.90;;;;;;5038896;28;20226;-70
2021/05/02 10:20:21;;;;;;;1.73;1.30;;;10.00;99.90;;;;;;5055334;28;20265;-71
2021/05/02 10:22:48;;;;;;;7.37;1.50;;;10.00;99.90;;;;;;5042796;28;20243;-74
2021/05/02 10:25:16;;;;;;;3.27;1.30;;;9.90;99.90;;;;;;5047000;28;20201;-72
2021/05/02 10:27:47;;;;;;;4.20;1.50;;;9.90;99.90;;;;;;5043434;28;20198;-72
2021/05/02 10:30:24;;;;;;;1.87;1.40;;;9.90;99.90;;;;;;5056655;28;20258;-72
2021/05/02 10:32:52;;;;;;;2.27;1.40;;;9.90;99.90;;;;;;5045457;28;20284;-72
2021/05/02 10:35:20;;;;;;;2.97;1.57;;;9.90;99.90;;;;;;5044808;28;20257;-73
2021/05/02 10:37:54;;;;;;;1.37;1.10;;;9.90;99.90;;;;;;5045524;28;20210;-73
2021/05/02 10:40:31;;;;;;;3.20;1.43;;;9.90;99.90;;;;;;5034185;28;20670;-73
2021/05/02 10:43:01;;;;;;;3.57;1.60;;;9.90;99.90;;;;;;5046328;28;20195;-73
2021/05/02 10:45:48;;;;;;;1.63;1.50;;;9.90;99.90;;;;;;5044080;28;20279;-71
2021/05/02 10:48:47;;;;;;;1.40;1.30;;;9.90;99.90;;;;;;5045950;28;20652;-72
2021/05/02 10:51:30;;;;;;;1.30;1.10;;;9.90;99.90;;;;;;5046013;28;20205;-72
2021/05/02 10:54:19;;;;;;;2.30;1.67;;;9.90;99.90;;;;;;5032355;28;20690;-70
2021/05/02 10:56:51;;;;;;;5.30;1.63;;;9.80;99.90;;;;;;4989662;28;20219;-71
2021/05/02 10:59:19;;;;;;;1.70;1.60;;;9.80;99.90;;;;;;4983021;28;20302;-72
2021/05/02 11:01:46;;;;;;;4.30;1.60;;;9.80;99.90;;;;;;4987314;28;20286;-69
2021/05/02 11:04:14;;;;;;;2.43;1.67;;;9.70;99.90;;;;;;4994308;28;20673;-71
2021/05/02 11:06:55;;;;;;;2.37;2.00;;;9.70;99.90;;;;;;5002977;28;20203;-72
2021/05/02 11:09:24;;;;;;;4.63;1.90;;;9.70;99.90;;;;;;4979649;28;20335;-72
2021/05/02 11:11:52;;;;;;;1.83;1.67;;;9.70;99.90;;;;;;5005119;28;20698;-71
2021/05/02 11:14:37;;;;;;;2.07;1.80;;;9.70;99.90;;;;;;5007545;28;20209;-70
2021/05/02 11:17:29;;;;;;;2.43;1.90;;;9.70;99.90;;;;;;5007489;28;20218;-70
2021/05/02 11:19:59;;;;;;;4.23;2.23;;;9.60;99.90;;;;;;4948587;29;20265;-69
2021/05/02 11:22:28;;;;;;;2.93;2.47;;;9.60;99.90;;;;;;4949186;28;20267;-70
2021/05/02 11:24:59;;;;;;;2.83;1.83;;;9.60;99.90;;;;;;4948616;29;20219;-70
2021/05/02 11:28:04;;;;;;;3.40;2.00;;;9.60;99.90;;;;;;4949660;28;20217;-72
2021/05/02 11:30:32;;;;;;;5.90;2.27;;;9.50;99.90;;;;;;4942890;28;20546;-71
2021/05/02 11:33:00;;;;;;;3.37;2.40;;;9.50;99.90;;;;;;4957293;28;20210;-71
2021/05/02 11:35:54;;;;;;;3.13;2.50;;;9.40;99.90;;;;;;4966883;28;20201;-72
2021/05/02 11:38:45;;;;;;;4.87;2.67;;;9.40;99.90;;;;;;4987311;28;20216;-73
2021/05/02 11:41:12;;;;;;;6.50;2.67;;;9.30;99.90;;;;;;4987284;28;20215;-73
2021/05/02 11:43:43;;;;;;;3.40;2.23;;;9.30;99.90;;;;;;4969876;28;20755;-73
2021/05/02 11:46:19;;;;;;;3.60;2.50;;;9.20;99.90;;;;;;4982289;28;20298;-73
2021/05/02 11:48:49;;;;;;;3.93;2.53;;;9.20;99.90;;;;;;4986299;28;20278;-72
2021/05/02 11:51:31;;;;;;;6.83;2.83;;;9.10;99.90;;;;;;4986851;28;20559;-71
2021/05/02 11:53:59;;;;;;;4.50;2.43;;;9.10;99.90;;;;;;4984729;28;20250;-71
2021/05/02 11:56:29;;;;;;;4.20;2.67;;;9.00;99.90;;;;;;5016002;28;20292;-72
2021/05/02 11:59:00;;;;;;;4.23;2.70;;;9.00;99.90;;;;;;5043774;28;20264;-72
2021/05/02 12:01:29;;;;;;;3.57;2.70;;;8.90;99.90;;;;;;5045547;28;20770;-70
2021/05/02 12:04:03;;;;;;;6.97;2.93;;;8.90;99.90;;;;;;5048520;28;20251;-71
2021/05/02 12:06:31;;;;;;;2.10;1.90;;;8.80;99.90;;;;;;5047077;28;20718;-71
2021/05/02 12:09:10;;;;;;;6.03;2.30;;;8.80;99.90;;;;;;5045409;28;20288;-72
2021/05/02 12:11:37;;;;;;;4.40;2.50;;;8.80;99.90;;;;;;5045814;28;20778;-73
2021/05/02 12:14:04;;;;;;;4.50;2.50;;;8.70;99.90;;;;;;5039084;28;20656;-71
2021/05/02 12:16:31;;;;;;;6.00;2.53;;;8.70;99.90;;;;;;5038264;28;20194;-68
2021/05/02 12:19:00;;;;;;;3.10;2.00;;;8.70;99.90;;;;;;5039427;28;20218;-72
2021/05/02 12:21:30;;;;;;;5.00;2.10;;;8.60;99.90;;;;;;5035568;28;20207;-70
2021/05/02 12:24:24;;;;;;;2.87;2.13;;;8.60;99.90;;;;;;5053677;28;20543;-70
2021/05/02 12:26:52;;;;;;;4.87;2.20;;;8.50;99.90;;;;;;4994983;28;20211;-68
2021/05/02 12:29:27;;;;;;;5.70;2.20;;;8.50;99.90;;;;;;4986146;28;20210;-71
2021/05/02 12:31:55;;;;;;;2.87;1.63;;;8.50;99.90;;;;;;4981552;28;20206;-72
2021/05/02 12:34:25;;;;;;;4.37;2.30;;;8.50;99.90;;;;;;4983337;28;20717;-72
2021/05/02 12:36:52;;;;;;;3.90;2.13;;;8.50;99.90;;;;;;4999391;28;20226;-71
2021/05/02 12:39:18;;;;;;;16.27;4.50;;;8.40;99.90;;;;;;4985418;28;20689;-71
2021/05/02 12:41:52;;;;;;;15.27;4.07;;;8.30;99.90;;;;;;5002644;28;20302;-73
2021/05/02 12:44:21;;;;;;;7.53;2.47;;;8.30;99.90;;;;;;4994549;28;20206;-71
2021/05/02 12:46:49;;;;;;;5.00;2.40;;;8.30;99.90;;;;;;4993292;28;20265;-73
2021/05/02 12:49:19;;;;;;;3.40;1.93;;;8.20;99.90;;;;;;4985984;28;20242;-75
2021/05/02 12:51:49;;;;;;;4.17;2.30;;;8.20;99.90;;;;;;4986945;28;20213;-77
2021/05/02 12:54:18;;;;;;;4.97;1.93;;;8.20;99.90;;;;;;5003938;28;20662;-77
2021/05/02 12:56:59;;;;;;;3.70;1.80;;;8.20;99.90;;;;;;4982481;28;20198;-78
2021/05/02 12:59:34;;;;;;;2.13;1.93;;;8.20;99.90;;;;;;5002779;28;20198;-77
2021/05/02 13:02:05;;;;;;;5.63;1.90;;;8.10;99.90;;;;;;4994901;28;20673;-75
2021/05/02 13:04:43;;;;;;;3.07;2.30;;;8.00;99.90;;;;;;5043138;28;20216;-76